sensor_id;sensor_type;location;lat;lon;timestamp;pressure;altitude;pressure_sealevel;temperature;humidity
55187;BME280;55457;52.002;5.464;2023-06-10T00:01:40;101310.75;;;24.07;46.63
55187;BME280;55457;52.002;5.464;2023-06-10T00:04:06;101313.44;;;24.02;46.62
55187;BME280;55457;52.002;5.464;2023-06-10T00:06:32;101305.00;;;24.04;46.88
55187;BME280;55457;52.002;5.464;2023-06-10T00:09:00;101313.97;;;24.04;46.93
55187;BME280;55457;52.002;5.464;2023-06-10T00:11:26;101318.59;;;24.04;46.39
55187;BME280;55457;52.002;5.464;2023-06-10T00:13:51;101313.97;;;24.04;46.39
55187;BME280;55457;52.002;5.464;2023-06-10T00:16:16;101318.59;;;24.04;46.72
55187;BME280;55457;52.002;5.464;2023-06-10T00:18:43;101322.16;;;24.04;46.64
55187;BME280;55457;52.002;5.464;2023-06-10T00:21:09;101315.63;;;24.05;46.44
55187;BME280;55457;52.002;5.464;2023-06-10T00:23:35;101325.69;;;24.05;46.76
55187;BME280;55457;52.002;5.464;2023-06-10T00:26:03;101313.97;;;24.04;46.78
55187;BME280;55457;52.002;5.464;2023-06-10T00:28:29;101322.69;;;24.06;46.47
55187;BME280;55457;52.002;5.464;2023-06-10T00:30:54;101321.88;;;24.06;46.57
55187;BME280;55457;52.002;5.464;2023-06-10T00:33:20;101323.22;;;24.03;46.45
55187;BME280;55457;52.002;5.464;2023-06-10T00:35:46;101324.06;;;24.04;46.22
55187;BME280;55457;52.002;5.464;2023-06-10T00:38:13;101318.88;;;24.02;46.66
55187;BME280;55457;52.002;5.464;2023-06-10T00:40:39;101321.59;;;24.02;46.85
55187;BME280;55457;52.002;5.464;2023-06-10T00:43:06;101321.59;;;24.02;46.69
55187;BME280;55457;52.002;5.464;2023-06-10T00:45:31;101320.50;;;24.03;46.51
55187;BME280;55457;52.002;5.464;2023-06-10T00:47:58;101316.97;;;24.03;46.18
55187;BME280;55457;52.002;5.464;2023-06-10T00:50:23;101330.31;;;24.04;46.64
55187;BME280;55457;52.002;5.464;2023-06-10T00:52:48;101324.88;;;24.04;46.48
55187;BME280;55457;52.002;5.464;2023-06-10T00:55:16;101323.22;;;24.03;46.31
55187;BME280;55457;52.002;5.464;2023-06-10T00:57:44;101328.69;;;24.03;46.35
55187;BME280;55457;52.002;5.464;2023-06-10T01:00:11;101317.78;;;24.03;46.31
55187;BME280;55457;52.002;5.464;2023-06-10T01:02:37;101323.22;;;24.03;46.32
55187;BME280;55457;52.002;5.464;2023-06-10T01:05:03;101321.59;;;24.02;46.20
55187;BME280;55457;52.002;5.464;2023-06-10T01:08:03;101327.84;;;24.03;46.45
55187;BME280;55457;52.002;5.464;2023-06-10T01:10:35;101319.94;;;24.01;46.05
55187;BME280;55457;52.002;5.464;2023-06-10T01:13:01;101325.38;;;24.01;46.17
55187;BME280;55457;52.002;5.464;2023-06-10T01:15:34;101321.00;;;24.00;46.01
55187;BME280;55457;52.002;5.464;2023-06-10T01:18:02;101322.59;;;23.96;46.22
55187;BME280;55457;52.002;5.464;2023-06-10T01:20:30;101321.28;;;23.99;46.02
55187;BME280;55457;52.002;5.464;2023-06-10T01:22:58;101325.91;;;23.98;46.06
55187;BME280;55457;52.002;5.464;2023-06-10T01:25:24;101325.38;;;24.01;45.97
55187;BME280;55457;52.002;5.464;2023-06-10T01:28:18;101326.44;;;24.00;46.07
55187;BME280;55457;52.002;5.464;2023-06-10T01:31:15;101326.44;;;24.00;45.81
55187;BME280;55457;52.002;5.464;2023-06-10T01:33:43;101322.09;;;23.99;45.93
55187;BME280;55457;52.002;5.464;2023-06-10T01:36:11;101327.53;;;23.99;45.01
55187;BME280;55457;52.002;5.464;2023-06-10T01:38:40;101320.41;;;23.93;45.39
55187;BME280;55457;52.002;5.464;2023-06-10T01:41:08;101324.50;;;23.95;45.53
55187;BME280;55457;52.002;5.464;2023-06-10T01:43:34;101326.41;;;23.95;45.76
55187;BME280;55457;52.002;5.464;2023-06-10T01:46:00;101328.03;;;23.96;45.83
55187;BME280;55457;52.002;5.464;2023-06-10T01:48:26;101322.59;;;23.96;45.83
55187;BME280;55457;52.002;5.464;2023-06-10T01:50:52;101321.53;;;23.97;45.76
55187;BME280;55457;52.002;5.464;2023-06-10T01:53:17;101321.53;;;23.97;45.67
55187;BME280;55457;52.002;5.464;2023-06-10T01:55:42;101320.97;;;23.95;45.25
55187;BME280;55457;52.002;5.464;2023-06-10T01:58:08;101319.88;;;23.96;45.55
55187;BME280;55457;52.002;5.464;2023-06-10T02:00:33;101324.44;;;23.90;44.81
55187;BME280;55457;52.002;5.464;2023-06-10T02:02:58;101323.63;;;23.90;45.32
55187;BME280;55457;52.002;5.464;2023-06-10T02:05:24;101324.97;;;23.87;45.59
55187;BME280;55457;52.002;5.464;2023-06-10T02:07:49;101332.06;;;23.88;45.56
55187;BME280;55457;52.002;5.464;2023-06-10T02:10:15;101320.34;;;23.88;45.51
55187;BME280;55457;52.002;5.464;2023-06-10T02:12:40;101320.34;;;23.88;44.80
55187;BME280;55457;52.002;5.464;2023-06-10T02:15:05;101322.50;;;23.86;45.13
55187;BME280;55457;52.002;5.464;2023-06-10T02:17:31;101324.91;;;23.82;45.01
55187;BME280;55457;52.002;5.464;2023-06-10T02:19:57;101330.09;;;23.84;45.35
55187;BME280;55457;52.002;5.464;2023-06-10T02:22:25;101334.44;;;23.85;45.26
55187;BME280;55457;52.002;5.464;2023-06-10T02:24:50;101332.31;;;23.87;45.20
55187;BME280;55457;52.002;5.464;2023-06-10T02:27:17;101340.22;;;23.88;45.22
55187;BME280;55457;52.002;5.464;2023-06-10T02:29:43;101335.03;;;23.87;45.28
55187;BME280;55457;52.002;5.464;2023-06-10T02:32:08;101345.94;;;23.87;45.15
55187;BME280;55457;52.002;5.464;2023-06-10T02:34:34;101338.84;;;23.86;45.03
55187;BME280;55457;52.002;5.464;2023-06-10T02:36:59;101338.84;;;23.86;45.00
55187;BME280;55457;52.002;5.464;2023-06-10T02:39:26;101347.25;;;23.84;44.73
55187;BME280;55457;52.002;5.464;2023-06-10T02:41:51;101343.69;;;23.84;45.00
55187;BME280;55457;52.002;5.464;2023-06-10T02:44:18;101342.63;;;23.85;44.73
55187;BME280;55457;52.002;5.464;2023-06-10T02:46:43;101345.09;;;23.86;44.72
55187;BME280;55457;52.002;5.464;2023-06-10T02:49:08;101342.63;;;23.85;44.89
55187;BME280;55457;52.002;5.464;2023-06-10T02:51:34;101341.31;;;23.87;44.66
55187;BME280;55457;52.002;5.464;2023-06-10T02:53:59;101343.44;;;23.85;44.95
55187;BME280;55457;52.002;5.464;2023-06-10T02:56:24;101340.47;;;23.87;44.91
55187;BME280;55457;52.002;5.464;2023-06-10T02:58:50;101341.78;;;23.84;44.83
55187;BME280;55457;52.002;5.464;2023-06-10T03:01:17;101330.09;;;23.84;44.92
55187;BME280;55457;52.002;5.464;2023-06-10T03:03:44;101339.06;;;23.84;44.62
55187;BME280;55457;52.002;5.464;2023-06-10T03:06:13;101339.91;;;23.85;44.51
55187;BME280;55457;52.002;5.464;2023-06-10T03:08:39;101333.91;;;23.83;44.52
55187;BME280;55457;52.002;5.464;2023-06-10T03:11:05;101341.50;;;23.81;44.38
55187;BME280;55457;52.002;5.464;2023-06-10T03:13:32;101343.97;;;23.82;44.70
55187;BME280;55457;52.002;5.464;2023-06-10T03:15:57;101342.06;;;23.83;44.65
55187;BME280;55457;52.002;5.464;2023-06-10T03:18:25;101342.56;;;23.80;44.33
55187;BME280;55457;52.002;5.464;2023-06-10T03:20:51;101344.47;;;23.79;44.49
55187;BME280;55457;52.002;5.464;2023-06-10T03:23:17;101342.00;;;23.78;44.29
55187;BME280;55457;52.002;5.464;2023-06-10T03:25:43;101342.00;;;23.78;44.44
55187;BME280;55457;52.002;5.464;2023-06-10T03:28:09;101352.88;;;23.78;44.52
55187;BME280;55457;52.002;5.464;2023-06-10T03:30:34;101343.63;;;23.79;44.63
55187;BME280;55457;52.002;5.464;2023-06-10T03:32:59;101344.72;;;23.78;44.47
55187;BME280;55457;52.002;5.464;2023-06-10T03:35:26;101344.47;;;23.79;44.65
55187;BME280;55457;52.002;5.464;2023-06-10T03:37:51;101350.72;;;23.80;44.63
55187;BME280;55457;52.002;5.464;2023-06-10T03:40:16;101341.50;;;23.81;44.59
55187;BME280;55457;52.002;5.464;2023-06-10T03:42:42;101357.84;;;23.81;44.84
55187;BME280;55457;52.002;5.464;2023-06-10T03:45:09;101352.41;;;23.81;44.56
55187;BME280;55457;52.002;5.464;2023-06-10T03:47:36;101354.03;;;23.82;44.59
55187;BME280;55457;52.002;5.464;2023-06-10T03:50:03;101355.66;;;23.83;44.69
55187;BME280;55457;52.002;5.464;2023-06-10T03:52:29;101354.84;;;23.82;44.51
55187;BME280;55457;52.002;5.464;2023-06-10T03:54:54;101352.94;;;23.83;44.70
55187;BME280;55457;52.002;5.464;2023-06-10T03:57:20;101354.84;;;23.82;44.94
55187;BME280;55457;52.002;5.464;2023-06-10T03:59:45;101353.22;;;23.81;44.70
55187;BME280;55457;52.002;5.464;2023-06-10T04:02:10;101350.72;;;23.80;44.43
55187;BME280;55457;52.002;5.464;2023-06-10T04:04:36;101367.88;;;23.80;44.89
55187;BME280;55457;52.002;5.464;2023-06-10T04:07:03;101360.56;;;23.81;44.71
55187;BME280;55457;52.002;5.464;2023-06-10T04:09:28;101358.88;;;23.80;45.05
55187;BME280;55457;52.002;5.464;2023-06-10T04:11:54;101371.38;;;23.76;44.91
55187;BME280;55457;52.002;5.464;2023-06-10T04:14:19;101356.69;;;23.77;44.99
55187;BME280;55457;52.002;5.464;2023-06-10T04:16:44;101364.59;;;23.78;44.88
55187;BME280;55457;52.002;5.464;2023-06-10T04:19:10;101365.41;;;23.79;45.03
55187;BME280;55457;52.002;5.464;2023-06-10T04:21:35;101358.34;;;23.78;45.02
55187;BME280;55457;52.002;5.464;2023-06-10T04:24:01;101370.84;;;23.79;45.32
55187;BME280;55457;52.002;5.464;2023-06-10T04:26:27;101373.84;;;23.77;44.98
55187;BME280;55457;52.002;5.464;2023-06-10T04:28:52;101374.94;;;23.76;44.80
55187;BME280;55457;52.002;5.464;2023-06-10T04:31:18;101380.91;;;23.78;44.91
55187;BME280;55457;52.002;5.464;2023-06-10T04:33:43;101381.75;;;23.79;45.06
55187;BME280;55457;52.002;5.464;2023-06-10T04:36:09;101378.19;;;23.78;44.80
55187;BME280;55457;52.002;5.464;2023-06-10T04:38:34;101380.59;;;23.75;45.00
55187;BME280;55457;52.002;5.464;2023-06-10T04:40:59;101384.66;;;23.72;45.11
55187;BME280;55457;52.002;5.464;2023-06-10T04:43:25;101380.03;;;23.73;44.96
55187;BME280;55457;52.002;5.464;2023-06-10T04:45:50;101389.84;;;23.74;45.21
55187;BME280;55457;52.002;5.464;2023-06-10T04:48:15;101389.84;;;23.74;45.40
55187;BME280;55457;52.002;5.464;2023-06-10T04:50:41;101389.84;;;23.74;45.63
55187;BME280;55457;52.002;5.464;2023-06-10T04:53:06;101389.84;;;23.74;45.35
55187;BME280;55457;52.002;5.464;2023-06-10T04:55:32;101391.75;;;23.73;45.29
55187;BME280;55457;52.002;5.464;2023-06-10T04:57:59;101390.84;;;23.67;45.34
55187;BME280;55457;52.002;5.464;2023-06-10T05:00:24;101393.31;;;23.69;45.49
55187;BME280;55457;52.002;5.464;2023-06-10T05:02:49;101390.84;;;23.67;45.31
55187;BME280;55457;52.002;5.464;2023-06-10T05:05:17;101395.22;;;23.68;45.56
55187;BME280;55457;52.002;5.464;2023-06-10T05:07:42;101392.50;;;23.68;45.34
55187;BME280;55457;52.002;5.464;2023-06-10T05:10:08;101397.44;;;23.72;45.44
55187;BME280;55457;52.002;5.464;2023-06-10T05:12:33;101392.81;;;23.72;45.57
55187;BME280;55457;52.002;5.464;2023-06-10T05:14:59;101381.13;;;23.72;45.55
55187;BME280;55457;52.002;5.464;2023-06-10T05:17:24;101398.28;;;23.72;45.54
55187;BME280;55457;52.002;5.464;2023-06-10T05:19:50;101393.66;;;23.73;45.58
55187;BME280;55457;52.002;5.464;2023-06-10T05:22:16;101395.28;;;23.74;45.35
55187;BME280;55457;52.002;5.464;2023-06-10T05:24:43;101394.13;;;23.69;45.56
55187;BME280;55457;52.002;5.464;2023-06-10T05:27:09;101391.69;;;23.68;45.91
55187;BME280;55457;52.002;5.464;2023-06-10T05:29:35;101389.22;;;23.66;45.83
55187;BME280;55457;52.002;5.464;2023-06-10T05:32:00;101392.19;;;23.65;45.85
55187;BME280;55457;52.002;5.464;2023-06-10T05:34:29;101400.59;;;23.63;45.95
55187;BME280;55457;52.002;5.464;2023-06-10T05:36:54;101393.47;;;23.62;46.13
55187;BME280;55457;52.002;5.464;2023-06-10T05:39:20;101395.16;;;23.63;46.02
55187;BME280;55457;52.002;5.464;2023-06-10T05:41:46;101398.94;;;23.62;46.21
55187;BME280;55457;52.002;5.464;2023-06-10T05:44:11;101405.22;;;23.63;45.97
55187;BME280;55457;52.002;5.464;2023-06-10T05:46:36;101400.59;;;23.63;46.08
55187;BME280;55457;52.002;5.464;2023-06-10T05:49:02;101399.41;;;23.59;46.03
55187;BME280;55457;52.002;5.464;2023-06-10T05:51:27;101403.75;;;23.55;46.32
55187;BME280;55457;52.002;5.464;2023-06-10T05:53:54;101399.94;;;23.56;46.46
55187;BME280;55457;52.002;5.464;2023-06-10T05:56:19;101408.09;;;23.56;46.24
55187;BME280;55457;52.002;5.464;2023-06-10T05:58:46;101401.91;;;23.61;46.35
55187;BME280;55457;52.002;5.464;2023-06-10T06:01:11;101402.22;;;23.64;46.38
55187;BME280;55457;52.002;5.464;2023-06-10T06:03:37;101400.09;;;23.66;46.32
55187;BME280;55457;52.002;5.464;2023-06-10T06:06:03;101399.03;;;23.67;46.04
55187;BME280;55457;52.002;5.464;2023-06-10T06:08:28;101402.31;;;23.69;46.38
55187;BME280;55457;52.002;5.464;2023-06-10T06:10:53;101397.72;;;23.70;46.58
55187;BME280;55457;52.002;5.464;2023-06-10T06:13:19;101398.53;;;23.71;46.45
55187;BME280;55457;52.002;5.464;2023-06-10T06:15:44;101399.66;;;23.75;46.52
55187;BME280;55457;52.002;5.464;2023-06-10T06:18:10;101400.25;;;23.77;46.62
55187;BME280;55457;52.002;5.464;2023-06-10T06:20:35;101404.34;;;23.79;46.72
55187;BME280;55457;52.002;5.464;2023-06-10T06:23:00;101403.25;;;23.80;46.56
55187;BME280;55457;52.002;5.464;2023-06-10T06:25:26;101404.66;;;23.83;46.37
55187;BME280;55457;52.002;5.464;2023-06-10T06:27:51;101404.66;;;23.83;46.21
55187;BME280;55457;52.002;5.464;2023-06-10T06:30:17;101396.22;;;23.84;46.16
55187;BME280;55457;52.002;5.464;2023-06-10T06:32:42;101400.38;;;23.87;46.40
55187;BME280;55457;52.002;5.464;2023-06-10T06:35:08;101397.38;;;23.88;46.17
55187;BME280;55457;52.002;5.464;2023-06-10T06:37:35;101405.28;;;23.90;46.25
55187;BME280;55457;52.002;5.464;2023-06-10T06:40:00;101401.50;;;23.91;46.00
55187;BME280;55457;52.002;5.464;2023-06-10T06:42:26;101399.84;;;23.90;46.34
55187;BME280;55457;52.002;5.464;2023-06-10T06:44:51;101397.72;;;23.92;46.16
55187;BME280;55457;52.002;5.464;2023-06-10T06:47:16;101393.91;;;23.93;46.26
55187;BME280;55457;52.002;5.464;2023-06-10T06:49:46;101406.16;;;23.95;46.00
55187;BME280;55457;52.002;5.464;2023-06-10T06:52:11;101393.63;;;23.94;46.16
55187;BME280;55457;52.002;5.464;2023-06-10T06:54:37;101409.72;;;23.96;46.17
55187;BME280;55457;52.002;5.464;2023-06-10T06:57:02;101403.72;;;23.94;46.18
55187;BME280;55457;52.002;5.464;2023-06-10T06:59:27;101407.00;;;23.96;46.14
55187;BME280;55457;52.002;5.464;2023-06-10T07:01:53;101400.50;;;23.97;46.40
55187;BME280;55457;52.002;5.464;2023-06-10T07:04:19;101404.25;;;23.96;46.09
55187;BME280;55457;52.002;5.464;2023-06-10T07:06:47;101414.66;;;23.99;46.22
55187;BME280;55457;52.002;5.464;2023-06-10T07:09:12;101415.47;;;24.00;46.09
55187;BME280;55457;52.002;5.464;2023-06-10T07:11:37;101409.78;;;24.01;46.07
55187;BME280;55457;52.002;5.464;2023-06-10T07:14:03;101413.34;;;24.02;46.08
55187;BME280;55457;52.002;5.464;2023-06-10T07:16:28;101419.59;;;24.02;46.05
55187;BME280;55457;52.002;5.464;2023-06-10T07:18:53;101419.09;;;24.05;45.99
55187;BME280;55457;52.002;5.464;2023-06-10T07:21:19;101428.34;;;24.04;46.12
55187;BME280;55457;52.002;5.464;2023-06-10T07:23:44;101423.72;;;24.05;46.26
55187;BME280;55457;52.002;5.464;2023-06-10T07:26:10;101428.34;;;24.04;46.10
55187;BME280;55457;52.002;5.464;2023-06-10T07:28:38;101429.97;;;24.05;46.10
55187;BME280;55457;52.002;5.464;2023-06-10T07:31:03;101429.97;;;24.05;45.86
55187;BME280;55457;52.002;5.464;2023-06-10T07:33:29;101432.69;;;24.05;46.12
55187;BME280;55457;52.002;5.464;2023-06-10T07:35:54;101429.97;;;24.05;46.26
55187;BME280;55457;52.002;5.464;2023-06-10T07:38:20;101424.28;;;24.07;46.03
55187;BME280;55457;52.002;5.464;2023-06-10T07:40:46;101434.09;;;24.08;45.83
55187;BME280;55457;52.002;5.464;2023-06-10T07:43:11;101432.47;;;24.07;46.07
55187;BME280;55457;52.002;5.464;2023-06-10T07:45:36;101427.84;;;24.07;46.00
55187;BME280;55457;52.002;5.464;2023-06-10T07:48:02;101427.84;;;24.07;46.13
55187;BME280;55457;52.002;5.464;2023-06-10T07:50:27;101434.09;;;24.08;45.90
55187;BME280;55457;52.002;5.464;2023-06-10T07:52:52;101440.09;;;24.10;46.10
55187;BME280;55457;52.002;5.464;2023-06-10T07:55:18;101434.66;;;24.10;46.07
55187;BME280;55457;52.002;5.464;2023-06-10T07:57:43;101437.38;;;24.10;45.92
55187;BME280;55457;52.002;5.464;2023-06-10T08:00:09;101432.75;;;24.10;46.18
55187;BME280;55457;52.002;5.464;2023-06-10T08:02:34;101438.19;;;24.10;45.80
55187;BME280;55457;52.002;5.464;2023-06-10T08:05:00;101430.63;;;24.12;46.24
55187;BME280;55457;52.002;5.464;2023-06-10T08:07:25;101435.25;;;24.12;46.25
55187;BME280;55457;52.002;5.464;2023-06-10T08:09:50;101426.81;;;24.13;46.34
55187;BME280;55457;52.002;5.464;2023-06-10T08:12:16;101431.19;;;24.14;46.53
55187;BME280;55457;52.002;5.464;2023-06-10T08:14:41;101426.28;;;24.16;46.51
55187;BME280;55457;52.002;5.464;2023-06-10T08:17:06;101420.84;;;24.16;46.56
55187;BME280;55457;52.002;5.464;2023-06-10T08:19:32;101433.97;;;24.19;46.60
55187;BME280;55457;52.002;5.464;2023-06-10T08:21:57;101425.78;;;24.19;46.56
55187;BME280;55457;52.002;5.464;2023-06-10T08:24:22;101425.78;;;24.19;46.73
55187;BME280;55457;52.002;5.464;2023-06-10T08:26:48;101423.63;;;24.21;46.60
55187;BME280;55457;52.002;5.464;2023-06-10T08:29:13;101423.38;;;24.23;46.83
55187;BME280;55457;52.002;5.464;2023-06-10T08:31:42;101433.19;;;24.24;46.86
55187;BME280;55457;52.002;5.464;2023-06-10T08:34:08;101431.28;;;24.25;46.76
55187;BME280;55457;52.002;5.464;2023-06-10T08:36:33;101427.50;;;24.26;47.03
55187;BME280;55457;52.002;5.464;2023-06-10T08:38:58;101418.81;;;24.29;46.89
55187;BME280;55457;52.002;5.464;2023-06-10T08:41:25;101431.34;;;24.30;46.76
55187;BME280;55457;52.002;5.464;2023-06-10T08:44:05;101426.72;;;24.30;46.86
55187;BME280;55457;52.002;5.464;2023-06-10T08:46:33;101424.81;;;24.31;46.82
55187;BME280;55457;52.002;5.464;2023-06-10T08:49:02;101422.69;;;24.33;47.13
55187;BME280;55457;52.002;5.464;2023-06-10T08:51:30;101430.84;;;24.33;47.20
55187;BME280;55457;52.002;5.464;2023-06-10T08:54:11;101429.78;;;24.34;47.06
55187;BME280;55457;52.002;5.464;2023-06-10T08:56:40;101431.16;;;24.36;46.79
55187;BME280;55457;52.002;5.464;2023-06-10T08:59:06;101434.13;;;24.35;47.10
55187;BME280;55457;52.002;5.464;2023-06-10T09:01:33;101428.69;;;24.35;47.11
55187;BME280;55457;52.002;5.464;2023-06-10T09:03:59;101437.13;;;24.33;47.24
55187;BME280;55457;52.002;5.464;2023-06-10T09:06:25;101432.50;;;24.34;46.99
55187;BME280;55457;52.002;5.464;2023-06-10T09:08:50;101437.13;;;24.33;46.85
55187;BME280;55457;52.002;5.464;2023-06-10T09:11:16;101430.84;;;24.33;47.04
55187;BME280;55457;52.002;5.464;2023-06-10T09:13:41;101433.56;;;24.33;46.93
55187;BME280;55457;52.002;5.464;2023-06-10T09:16:07;101424.56;;;24.32;47.05
55187;BME280;55457;52.002;5.464;2023-06-10T09:18:32;101431.66;;;24.33;47.18
55187;BME280;55457;52.002;5.464;2023-06-10T09:20:59;101434.63;;;24.32;47.07
55187;BME280;55457;52.002;5.464;2023-06-10T09:23:25;101429.78;;;24.34;47.37
55187;BME280;55457;52.002;5.464;2023-06-10T09:25:57;101433.06;;;24.36;47.42
55187;BME280;55457;52.002;5.464;2023-06-10T09:28:23;101433.06;;;24.36;47.29
55187;BME280;55457;52.002;5.464;2023-06-10T09:30:48;101430.34;;;24.36;47.31
55187;BME280;55457;52.002;5.464;2023-06-10T09:33:14;101418.13;;;24.38;47.48
55187;BME280;55457;52.002;5.464;2023-06-10T09:35:47;101423.59;;;24.38;47.41
55187;BME280;55457;52.002;5.464;2023-06-10T09:38:18;101426.03;;;24.40;47.58
55187;BME280;55457;52.002;5.464;2023-06-10T09:40:52;101429.31;;;24.42;47.41
55187;BME280;55457;52.002;5.464;2023-06-10T09:43:19;101427.41;;;24.42;47.29
55187;BME280;55457;52.002;5.464;2023-06-10T09:45:47;101430.97;;;24.43;47.53
55187;BME280;55457;52.002;5.464;2023-06-10T09:48:14;101428.25;;;24.43;47.32
55187;BME280;55457;52.002;5.464;2023-06-10T09:50:43;101424.19;;;24.45;47.19
55187;BME280;55457;52.002;5.464;2023-06-10T09:53:09;101424.47;;;24.44;47.59
55187;BME280;55457;52.002;5.464;2023-06-10T09:55:40;101423.38;;;24.45;47.27
55187;BME280;55457;52.002;5.464;2023-06-10T09:58:06;101428.56;;;24.46;47.47
55187;BME280;55457;52.002;5.464;2023-06-10T10:00:33;101421.19;;;24.47;47.75
55187;BME280;55457;52.002;5.464;2023-06-10T10:02:59;101418.47;;;24.47;47.54
55187;BME280;55457;52.002;5.464;2023-06-10T10:05:25;101427.47;;;24.47;47.48
55187;BME280;55457;52.002;5.464;2023-06-10T10:07:51;101419.56;;;24.46;47.37
55187;BME280;55457;52.002;5.464;2023-06-10T10:10:19;101415.75;;;24.47;47.43
55187;BME280;55457;52.002;5.464;2023-06-10T10:12:51;101407.03;;;24.45;47.50
55187;BME280;55457;52.002;5.464;2023-06-10T10:15:18;101408.66;;;24.46;47.65
55187;BME280;55457;52.002;5.464;2023-06-10T10:17:50;101412.22;;;24.46;47.39
55187;BME280;55457;52.002;5.464;2023-06-10T10:20:20;101410.31;;;24.47;47.51
55187;BME280;55457;52.002;5.464;2023-06-10T10:22:47;101405.94;;;24.46;47.37
55187;BME280;55457;52.002;5.464;2023-06-10T10:25:16;101410.31;;;24.47;47.18
55187;BME280;55457;52.002;5.464;2023-06-10T10:27:56;101411.13;;;24.47;47.20
55187;BME280;55457;52.002;5.464;2023-06-10T10:30:22;101405.69;;;24.47;47.17
55187;BME280;55457;52.002;5.464;2023-06-10T10:35:25;101396.44;;;24.49;47.16
55187;BME280;55457;52.002;5.464;2023-06-10T10:37:54;101397.25;;;24.49;47.30
55187;BME280;55457;52.002;5.464;2023-06-10T10:40:23;101402.72;;;24.49;47.38
55187;BME280;55457;52.002;5.464;2023-06-10T10:42:50;101393.72;;;24.49;47.16
55187;BME280;55457;52.002;5.464;2023-06-10T10:45:16;101401.38;;;24.52;46.98
55187;BME280;55457;52.002;5.464;2023-06-10T10:47:44;101393.19;;;24.52;47.22
55187;BME280;55457;52.002;5.464;2023-06-10T10:50:18;101392.09;;;24.53;46.91
55187;BME280;55457;52.002;5.464;2023-06-10T10:52:55;101401.09;;;24.53;46.90
55187;BME280;55457;52.002;5.464;2023-06-10T10:55:21;101385.84;;;24.52;46.90
55187;BME280;55457;52.002;5.464;2023-06-10T11:00:35;101389.13;;;24.54;46.92
55187;BME280;55457;52.002;5.464;2023-06-10T11:05:39;101380.16;;;24.54;46.93
55187;BME280;55457;52.002;5.464;2023-06-10T11:08:05;101373.59;;;24.55;46.69
55187;BME280;55457;52.002;5.464;2023-06-10T11:10:36;101373.59;;;24.55;46.78
55187;BME280;55457;52.002;5.464;2023-06-10T11:13:08;101375.25;;;24.56;46.88
55187;BME280;55457;52.002;5.464;2023-06-10T11:15:47;101377.16;;;24.55;46.92
55187;BME280;55457;52.002;5.464;2023-06-10T11:18:34;101381.53;;;24.56;46.86
55187;BME280;55457;52.002;5.464;2023-06-10T11:21:04;101373.91;;;24.58;46.87
55187;BME280;55457;52.002;5.464;2023-06-10T11:23:37;101371.44;;;24.57;47.01
55187;BME280;55457;52.002;5.464;2023-06-10T11:28:38;101362.19;;;24.58;46.85
55187;BME280;55457;52.002;5.464;2023-06-10T11:31:04;101366.81;;;24.57;46.86
55187;BME280;55457;52.002;5.464;2023-06-10T11:33:30;101352.09;;;24.58;46.78
55187;BME280;55457;52.002;5.464;2023-06-10T11:35:56;101363.81;;;24.59;46.85
55187;BME280;55457;52.002;5.464;2023-06-10T11:38:21;101354.59;;;24.60;46.98
55187;BME280;55457;52.002;5.464;2023-06-10T11:40:50;101360.03;;;24.60;46.86
55187;BME280;55457;52.002;5.464;2023-06-10T11:43:19;101365.47;;;24.60;46.57
55187;BME280;55457;52.002;5.464;2023-06-10T11:45:44;101353.75;;;24.59;46.59
55187;BME280;55457;52.002;5.464;2023-06-10T11:48:10;101360.84;;;24.60;46.69
55187;BME280;55457;52.002;5.464;2023-06-10T11:50:37;101350.78;;;24.61;46.56
55187;BME280;55457;52.002;5.464;2023-06-10T11:53:03;101355.41;;;24.60;46.59
55187;BME280;55457;52.002;5.464;2023-06-10T11:55:45;101357.84;;;24.62;46.75
55187;BME280;55457;52.002;5.464;2023-06-10T11:58:20;101354.88;;;24.63;46.82
55187;BME280;55457;52.002;5.464;2023-06-10T12:00:53;101351.09;;;24.64;46.68
55187;BME280;55457;52.002;5.464;2023-06-10T12:03:20;101354.63;;;24.65;46.69
55187;BME280;55457;52.002;5.464;2023-06-10T12:05:58;101347.28;;;24.65;46.62
55187;BME280;55457;52.002;5.464;2023-06-10T12:08:24;101336.38;;;24.65;46.67
55187;BME280;55457;52.002;5.464;2023-06-10T12:10:50;101331.47;;;24.67;46.66
55187;BME280;55457;52.002;5.464;2023-06-10T12:13:15;101327.09;;;24.66;46.93
55187;BME280;55457;52.002;5.464;2023-06-10T12:15:43;101328.75;;;24.67;46.65
55187;BME280;55457;52.002;5.464;2023-06-10T12:18:15;101328.75;;;24.67;46.56
55187;BME280;55457;52.002;5.464;2023-06-10T12:20:41;101324.94;;;24.68;46.42
55187;BME280;55457;52.002;5.464;2023-06-10T12:23:11;101322.78;;;24.70;46.62
55187;BME280;55457;52.002;5.464;2023-06-10T12:25:37;101317.34;;;24.70;46.37
55187;BME280;55457;52.002;5.464;2023-06-10T12:28:03;101321.69;;;24.71;46.52
55187;BME280;55457;52.002;5.464;2023-06-10T12:30:29;101320.59;;;24.72;46.50
55187;BME280;55457;52.002;5.464;2023-06-10T12:32:55;101326.06;;;24.72;46.69
55187;BME280;55457;52.002;5.464;2023-06-10T12:35:26;101324.97;;;24.73;46.24
55187;BME280;55457;52.002;5.464;2023-06-10T12:37:59;101321.19;;;24.75;46.49
55187;BME280;55457;52.002;5.464;2023-06-10T12:40:30;101316.56;;;24.75;46.34
55187;BME280;55457;52.002;5.464;2023-06-10T12:43:00;101320.91;;;24.76;46.28
55187;BME280;55457;52.002;5.464;2023-06-10T12:45:35;101326.09;;;24.78;46.29
55187;BME280;55457;52.002;5.464;2023-06-10T12:50:39;101314.91;;;24.79;46.27
55187;BME280;55457;52.002;5.464;2023-06-10T12:53:05;101315.50;;;24.81;46.12
55187;BME280;55457;52.002;5.464;2023-06-10T12:55:31;101319.03;;;24.82;46.26
55187;BME280;55457;52.002;5.464;2023-06-10T12:57:57;101316.31;;;24.82;46.05
55187;BME280;55457;52.002;5.464;2023-06-10T13:00:23;101314.41;;;24.82;46.13
55187;BME280;55457;52.002;5.464;2023-06-10T13:02:52;101326.69;;;24.85;46.16